createdAt,value
2018-01-26T09:32:20.353Z,5.03
2018-01-26T09:39:24.940Z,14.50
2018-01-26T09:41:57.705Z,14.60
2018-01-26T09:48:03.099Z,15.60
2018-01-26T09:50:31.247Z,15.83
2018-01-26T09:52:59.447Z,14.97
2018-01-26T09:55:27.663Z,14.77
2018-01-26T09:57:55.739Z,16.43
2018-01-26T10:00:23.859Z,15.47
2018-01-26T10:02:52.759Z,15.65
2018-01-26T10:05:20.950Z,15.70
2018-01-26T10:07:49.108Z,15.38
2018-01-26T10:10:17.247Z,15.20
2018-01-26T10:12:45.379Z,15.47
2018-01-26T10:15:13.513Z,14.57
2018-01-26T10:17:42.419Z,15.18
2018-01-26T10:20:10.535Z,15.00
2018-01-26T10:22:38.687Z,16.02
2018-01-26T10:25:06.819Z,14.45
2018-01-26T10:27:35.711Z,15.65
2018-01-26T10:30:04.587Z,14.43
2018-01-26T10:32:33.574Z,14.23
2018-01-26T10:35:01.679Z,14.57
2018-01-26T10:37:29.835Z,14.00
2018-01-26T10:39:58.745Z,13.25
2018-01-26T10:42:27.323Z,12.80
2018-01-26T10:44:55.624Z,13.45
2018-01-26T10:47:23.755Z,13.35
2018-01-26T10:49:52.671Z,13.55
2018-01-26T10:52:20.835Z,13.32
2018-01-26T10:54:49.015Z,12.15
2018-01-26T10:57:17.153Z,13.80
2018-01-26T10:59:45.250Z,13.07
2018-01-26T11:02:14.151Z,12.25
2018-01-26T11:04:42.295Z,13.30
2018-01-26T11:07:10.462Z,12.48
2018-01-26T11:09:38.603Z,12.90
2018-01-26T11:12:06.738Z,11.70
2018-01-26T11:14:34.932Z,11.77
2018-01-26T11:17:03.051Z,12.43
2018-01-26T11:19:32.676Z,12.32
2018-01-26T11:22:01.688Z,12.18
2018-01-26T11:24:29.884Z,12.63
2018-01-26T11:26:58.218Z,12.82
2018-01-26T11:29:27.122Z,12.45
2018-01-26T11:31:55.998Z,12.27
2018-01-26T11:36:59.482Z,11.55
2018-01-26T11:39:27.611Z,10.05
2018-01-26T11:41:55.714Z,9.85
2018-01-26T11:44:23.944Z,9.40
2018-01-26T11:46:52.866Z,8.82
2018-01-26T11:49:20.986Z,8.85
2018-01-26T11:51:49.112Z,8.82
2018-01-26T11:54:17.292Z,9.35
2018-01-26T11:56:45.543Z,8.68
2018-01-26T11:59:13.740Z,9.25
2018-01-26T12:01:41.837Z,8.75
2018-01-26T12:04:09.971Z,9.05
2018-01-26T12:06:38.120Z,9.05
2018-01-26T12:09:07.044Z,9.32
2018-01-26T12:11:35.138Z,9.50
2018-01-26T12:14:03.316Z,9.30
2018-01-26T12:16:32.279Z,8.75
2018-01-26T12:19:00.396Z,8.98
2018-01-26T12:21:28.510Z,8.95
2018-01-26T12:23:56.700Z,9.25
2018-01-26T12:26:24.870Z,9.32
2018-01-26T12:28:52.976Z,8.60
2018-01-26T12:31:21.098Z,8.57
2018-01-26T12:33:49.464Z,8.68
2018-01-26T12:36:17.670Z,7.25
2018-01-26T12:38:45.768Z,7.62
2018-01-26T12:41:13.908Z,7.65
2018-01-26T12:43:42.020Z,7.43
2018-01-26T12:46:10.140Z,7.35
2018-01-26T12:48:38.280Z,7.45
2018-01-26T12:51:07.887Z,7.60
2018-01-26T12:53:36.784Z,7.70
2018-01-26T12:56:05.679Z,7.93
2018-01-26T12:58:33.832Z,8.57
2018-01-26T13:01:02.031Z,8.25
2018-01-26T13:03:30.967Z,8.30
2018-01-26T13:05:59.135Z,8.88
2018-01-26T13:08:27.287Z,9.20
2018-01-26T13:10:55.451Z,8.90
2018-01-26T13:13:23.623Z,8.90
2018-01-26T13:15:51.755Z,9.25
2018-01-26T13:18:19.883Z,9.65
2018-01-26T13:20:48.073Z,10.25
2018-01-26T13:23:16.245Z,8.88
2018-01-26T13:25:44.417Z,9.57
2018-01-26T13:28:12.543Z,9.43
2018-01-26T13:30:41.423Z,9.32
2018-01-26T13:33:11.121Z,9.55
2018-01-26T13:35:39.249Z,9.52
2018-01-26T13:38:08.123Z,9.68
2018-01-26T13:40:36.271Z,9.80
2018-01-26T13:43:04.375Z,9.57
2018-01-26T13:45:32.515Z,9.27
2018-01-26T13:48:00.703Z,9.20
2018-01-26T13:50:29.591Z,9.57
2018-01-26T13:52:57.740Z,9.57
2018-01-26T13:55:25.886Z,9.32
2018-01-26T13:57:54.013Z,9.30
2018-01-26T14:00:23.121Z,8.93
2018-01-26T14:02:52.019Z,9.07
2018-01-26T14:05:20.139Z,9.48
2018-01-26T14:07:48.283Z,8.70
2018-01-26T14:10:16.431Z,8.82
2018-01-26T14:12:44.587Z,8.93
2018-01-26T14:15:13.698Z,8.88
2018-01-26T14:17:41.866Z,8.90
2018-01-26T14:20:10.859Z,9.40
2018-01-26T14:22:39.751Z,8.65
2018-01-26T14:25:08.693Z,9.35
2018-01-26T14:27:36.795Z,9.38
2018-01-26T14:30:04.912Z,8.80
2018-01-26T14:32:33.070Z,9.30
2018-01-26T14:35:01.239Z,8.95
2018-01-26T14:37:29.437Z,8.73
2018-01-26T14:39:58.305Z,9.48
2018-01-26T14:42:27.278Z,10.00
2018-01-26T14:44:56.182Z,8.98
2018-01-26T14:47:24.374Z,8.88
2018-01-26T14:49:52.496Z,9.35
2018-01-26T14:52:20.708Z,9.00
2018-01-26T14:54:48.870Z,10.07
2018-01-26T14:57:17.815Z,9.18
2018-01-26T14:59:45.928Z,9.25
2018-01-26T15:02:14.834Z,9.38
2018-01-26T15:04:43.020Z,9.88
2018-01-26T15:07:11.145Z,9.60
2018-01-26T15:09:39.348Z,10.10
2018-01-26T15:12:08.240Z,10.13
2018-01-26T15:14:37.118Z,9.80
2018-01-26T15:17:06.034Z,9.98
2018-01-26T15:19:34.152Z,10.48
2018-01-26T15:22:02.269Z,10.82
2018-01-26T15:24:30.472Z,10.57
2018-01-26T15:26:58.624Z,10.82
2018-01-26T15:29:26.818Z,10.82
2018-01-26T15:31:54.968Z,11.07
2018-01-26T15:34:23.106Z,10.55
2018-01-26T15:36:52.787Z,11.88
2018-01-26T15:39:20.926Z,11.52
2018-01-26T15:41:49.053Z,10.33
2018-01-26T15:44:17.170Z,10.82
2018-01-26T15:46:46.766Z,11.35
2018-01-26T15:49:15.647Z,10.68
2018-01-26T15:51:44.525Z,10.68
2018-01-26T15:54:12.726Z,11.10
2018-01-26T15:56:40.848Z,11.52
2018-01-26T15:59:09.140Z,11.77
2018-01-26T16:01:37.250Z,11.45
2018-01-26T16:04:05.371Z,12.93
2018-01-26T16:06:33.622Z,12.23
2018-01-26T16:09:01.779Z,13.70
2018-01-26T16:11:30.032Z,12.90
2018-01-26T16:13:58.936Z,12.23
2018-01-26T16:16:27.107Z,11.50
2018-01-26T16:18:55.301Z,12.63
2018-01-26T16:21:23.463Z,11.80
2018-01-26T16:23:51.587Z,11.73
2018-01-26T16:26:19.751Z,11.45
2018-01-26T16:28:48.105Z,11.23
2018-01-26T16:31:16.261Z,11.48
2018-01-26T16:33:44.403Z,10.82
2018-01-26T16:36:12.799Z,11.27
2018-01-26T16:38:41.010Z,11.38
2018-01-26T16:41:09.163Z,11.00
2018-01-26T16:43:37.307Z,11.12
2018-01-26T16:46:06.215Z,12.05
2018-01-26T16:48:34.811Z,12.20
2018-01-26T16:51:02.931Z,11.90
2018-01-26T16:53:31.047Z,12.48
2018-01-26T16:55:59.169Z,12.25
2018-01-26T16:58:27.370Z,13.05
2018-01-26T17:00:56.271Z,13.10
2018-01-26T17:03:25.147Z,12.80
2018-01-26T17:05:54.799Z,13.70
2018-01-26T17:08:23.046Z,12.80
2018-01-26T17:10:51.971Z,12.30
2018-01-26T17:13:20.063Z,12.73
2018-01-26T17:15:48.294Z,12.80
2018-01-26T17:18:16.427Z,13.57
2018-01-26T17:20:44.546Z,14.00
2018-01-26T17:23:12.659Z,12.93
2018-01-26T17:25:40.787Z,13.52
2018-01-26T17:28:08.959Z,13.50
2018-01-26T17:30:37.074Z,13.43
2018-01-26T17:33:05.184Z,13.05
2018-01-26T17:35:34.078Z,12.40
2018-01-26T17:38:03.018Z,14.00
2018-01-26T17:40:31.134Z,13.18
2018-01-26T17:43:00.011Z,13.13
2018-01-26T17:45:28.226Z,13.10
2018-01-26T17:47:56.346Z,12.82
2018-01-26T17:50:25.300Z,13.43
2018-01-26T17:52:53.658Z,14.00
2018-01-26T17:55:22.572Z,14.30
2018-01-26T17:57:50.708Z,14.38
2018-01-26T18:00:19.582Z,15.50
2018-01-26T18:02:48.466Z,16.25
2018-01-26T18:05:16.614Z,17.50
2018-01-26T18:07:44.782Z,17.23
2018-01-26T18:10:12.891Z,17.73
2018-01-26T18:12:41.056Z,16.65
2018-01-26T18:15:09.170Z,17.15
2018-01-26T18:17:37.339Z,17.37
2018-01-26T18:20:06.246Z,16.50
2018-01-26T18:22:34.358Z,17.73
2018-01-26T18:25:02.585Z,18.12
2018-01-26T18:27:31.510Z,17.70
2018-01-26T18:29:59.624Z,18.23
2018-01-26T18:32:28.498Z,18.23
2018-01-26T18:34:56.652Z,18.42
2018-01-26T18:37:24.768Z,18.90
2018-01-26T18:39:53.660Z,18.35
2018-01-26T18:42:22.588Z,19.20
2018-01-26T18:44:50.768Z,20.02
2018-01-26T18:47:19.006Z,19.25
2018-01-26T18:49:47.917Z,19.80
2018-01-26T18:52:16.028Z,19.98
2018-01-26T18:54:44.133Z,21.10
2018-01-26T18:57:13.065Z,20.25
2018-01-26T18:59:41.210Z,19.95
2018-01-26T19:02:09.319Z,20.88
2018-01-26T19:04:37.434Z,19.90
2018-01-26T19:07:06.370Z,20.52
2018-01-26T19:09:34.502Z,20.92
2018-01-26T19:12:03.382Z,22.35
2018-01-26T19:14:32.998Z,21.75
2018-01-26T19:17:02.004Z,21.77
2018-01-26T19:19:30.904Z,23.30
2018-01-26T19:21:59.020Z,22.90
2018-01-26T19:24:27.130Z,22.80
2018-01-26T19:26:56.138Z,25.00
2018-01-26T19:29:25.020Z,25.52
2018-01-26T19:31:53.891Z,23.50
2018-01-26T19:34:23.513Z,25.05
2018-01-26T19:36:52.395Z,24.98
2018-01-26T19:39:21.279Z,25.60
2018-01-26T19:41:49.387Z,26.15
2018-01-26T19:44:17.499Z,26.08
2018-01-26T19:46:45.623Z,25.15
2018-01-26T19:49:13.791Z,25.42
2018-01-26T19:51:42.670Z,27.27
2018-01-26T19:54:11.547Z,27.55
2018-01-26T19:56:40.451Z,27.62
2018-01-26T19:59:09.351Z,26.05
2018-01-26T20:01:38.231Z,26.90
2018-01-26T20:04:07.116Z,26.90
2018-01-26T20:06:53.040Z,28.60
2018-01-26T20:09:26.175Z,26.85
2018-01-26T20:12:00.145Z,28.02
2018-01-26T20:14:28.291Z,28.92
2018-01-26T20:16:57.178Z,29.80
2018-01-26T20:19:26.091Z,27.98
2018-01-26T20:21:54.203Z,29.83
2018-01-26T20:24:22.306Z,28.60
2018-01-26T20:26:51.317Z,31.55
2018-01-26T20:29:20.291Z,30.33
2018-01-26T20:31:49.183Z,30.37
2018-01-26T20:34:18.099Z,30.55
2018-01-26T20:36:46.259Z,30.52
2018-01-26T20:39:15.358Z,32.00
2018-01-26T20:41:43.543Z,30.98
2018-01-26T20:44:11.659Z,31.12
2018-01-26T20:46:39.785Z,30.45
2018-01-26T20:49:08.047Z,30.40
2018-01-26T20:51:36.947Z,32.47
2018-01-26T20:54:05.050Z,31.85
2018-01-26T20:56:33.287Z,32.40
2018-01-26T20:59:02.206Z,31.58
2018-01-26T21:01:30.319Z,31.95
2018-01-26T21:03:58.427Z,32.15
2018-01-26T21:06:26.625Z,33.50
2018-01-26T21:08:54.742Z,33.17
2018-01-26T21:11:22.911Z,31.73
2018-01-26T21:13:51.118Z,33.28
2018-01-26T21:16:19.233Z,32.33
2018-01-26T21:18:47.391Z,32.63
2018-01-26T21:21:15.522Z,31.33
2018-01-26T21:23:44.400Z,33.40
2018-01-26T21:26:12.525Z,33.38
2018-01-26T21:28:40.634Z,33.30
2018-01-26T21:31:08.848Z,32.25
2018-01-26T21:33:37.031Z,31.33
2018-01-26T21:36:05.142Z,32.90
2018-01-26T21:38:33.297Z,31.75
2018-01-26T21:41:01.414Z,31.75
2018-01-26T21:43:30.326Z,31.85
2018-01-26T21:45:59.322Z,31.83
2018-01-26T21:48:27.436Z,30.08
2018-01-26T21:50:55.674Z,31.62
2018-01-26T21:53:23.788Z,30.33
2018-01-26T21:55:51.911Z,29.45
2018-01-26T21:58:20.025Z,29.70
2018-01-26T22:00:48.154Z,30.58
2018-01-26T22:03:17.036Z,29.67
2018-01-26T22:05:45.941Z,30.75
2018-01-26T22:08:14.869Z,30.62
2018-01-26T22:10:43.080Z,29.02
2018-01-26T22:13:11.200Z,30.70
2018-01-26T22:15:39.308Z,30.67
2018-01-26T22:18:07.524Z,29.80
2018-01-26T22:20:35.690Z,30.45
2018-01-26T22:23:04.591Z,29.92
2018-01-26T22:25:32.764Z,29.83
2018-01-26T22:28:00.944Z,29.33
2018-01-26T22:30:29.116Z,28.42
2018-01-26T22:32:57.230Z,29.45
2018-01-26T22:35:25.452Z,27.92
2018-01-26T22:37:54.322Z,28.70
2018-01-26T22:40:23.346Z,26.48
2018-01-26T22:42:51.448Z,27.33
2018-01-26T22:45:19.580Z,26.95
2018-01-26T22:47:48.508Z,26.65
2018-01-26T22:50:16.638Z,27.45
2018-01-26T22:52:45.507Z,27.40
2018-01-26T22:55:13.665Z,26.60
2018-01-26T22:57:41.838Z,26.75
2018-01-26T23:00:09.964Z,27.98
2018-01-26T23:02:38.070Z,25.55
2018-01-26T23:05:06.212Z,28.05
2018-01-26T23:07:34.336Z,26.92
2018-01-26T23:10:02.556Z,26.12
2018-01-26T23:12:30.816Z,25.05
2018-01-26T23:14:59.698Z,27.08
2018-01-26T23:17:28.587Z,25.70
2018-01-26T23:19:57.486Z,26.17
2018-01-26T23:22:26.365Z,26.37
2018-01-26T23:24:55.251Z,25.73
2018-01-26T23:27:24.149Z,25.02
2018-01-26T23:29:53.172Z,25.48
2018-01-26T23:32:21.718Z,24.17
2018-01-26T23:34:49.403Z,25.58
2018-01-26T23:37:17.537Z,24.05
2018-01-26T23:39:45.669Z,24.35
2018-01-26T23:42:13.779Z,25.73
2018-01-26T23:44:41.917Z,24.60
2018-01-26T23:47:10.022Z,24.12
2018-01-26T23:49:38.981Z,23.77
2018-01-26T23:52:07.071Z,24.52
2018-01-26T23:54:35.191Z,22.50
2018-01-26T23:57:04.208Z,23.00
2018-01-26T23:59:32.339Z,23.70
